Time;durP1;ratioP1;P1;durP2;ratioP2;P2;SDS_P1;SDS_P2;PMS_P1;PMS_P2;Temp;Humidity;BMP_temperature;BMP_pressure;BME280_temperature;BME280_humidity;BME280_pressure;Samples;Min_cycle;Max_cycle;Signal;HPM_P1;HPM_P2
2022/03/11 00:01:07;;;;;;;14.07;8.00;;;6.00;99.90;;;;;;5115664;22;20052;-82
2022/03/11 00:03:34;;;;;;;13.90;7.60;;;5.60;99.90;;;;;;5116245;22;20458;-82
2022/03/11 00:05:59;;;;;;;14.32;8.27;;;5.60;99.90;;;;;;5110078;22;20079;-83
2022/03/11 00:08:25;;;;;;;15.20;8.02;;;5.70;99.90;;;;;;5117418;22;20055;-83
2022/03/11 00:10:51;;;;;;;15.85;8.50;;;5.50;99.90;;;;;;5134819;22;20042;-80
2022/03/11 00:13:17;;;;;;;14.45;8.63;;;5.40;99.90;;;;;;5116376;22;20047;-80
2022/03/11 00:15:43;;;;;;;15.32;8.93;;;5.50;99.90;;;;;;5115824;22;20142;-82
2022/03/11 00:18:08;;;;;;;20.05;8.55;;;5.50;99.90;;;;;;5107770;22;20048;-81
2022/03/11 00:20:34;;;;;;;14.98;8.30;;;5.40;99.90;;;;;;5125701;22;20463;-82
2022/03/11 00:23:00;;;;;;;15.25;7.95;;;6.00;99.90;;;;;;5116849;22;20048;-81
2022/03/11 00:25:37;;;;;;;15.27;8.63;;;5.30;99.90;;;;;;5110861;22;20401;-82
2022/03/11 00:28:03;;;;;;;15.40;8.77;;;5.80;99.90;;;;;;5098973;22;20148;-82
2022/03/11 00:30:35;;;;;;;15.48;8.35;;;5.30;99.90;;;;;;5087712;22;20055;-83
2022/03/11 00:33:01;;;;;;;14.75;8.32;;;5.80;99.90;;;;;;5110421;22;20054;-82
2022/03/11 00:35:34;;;;;;;15.02;8.63;;;6.10;99.90;;;;;;5087624;22;20115;-83
2022/03/11 00:37:59;;;;;;;14.85;8.40;;;5.70;99.90;;;;;;5110042;22;20056;-82
2022/03/11 00:40:26;;;;;;;18.38;9.35;;;5.50;99.90;;;;;;5087744;22;20058;-82
2022/03/11 00:42:51;;;;;;;14.35;8.57;;;5.10;99.90;;;;;;5078627;22;20053;-83
2022/03/11 00:45:18;;;;;;;16.40;9.02;;;5.10;99.90;;;;;;5080147;22;20529;-82
2022/03/11 00:47:43;;;;;;;19.20;9.00;;;5.10;99.90;;;;;;5081512;22;20087;-83
2022/03/11 00:50:09;;;;;;;14.13;8.32;;;5.30;99.90;;;;;;5109796;22;20064;-82
2022/03/11 00:52:37;;;;;;;13.70;8.55;;;5.00;99.90;;;;;;5092541;22;20083;-83
2022/03/11 00:55:03;;;;;;;15.48;8.95;;;5.00;99.90;;;;;;5093240;22;20585;-83
2022/03/11 00:57:36;;;;;;;14.73;8.73;;;5.00;99.90;;;;;;5079289;22;20063;-82
2022/03/11 01:00:03;;;;;;;16.05;9.38;;;4.60;99.90;;;;;;5110204;22;20084;-82
2022/03/11 01:02:36;;;;;;;16.98;8.77;;;4.90;99.90;;;;;;5088421;22;20432;-83
2022/03/11 01:05:04;;;;;;;15.65;8.68;;;4.50;99.90;;;;;;5085240;22;20463;-82
2022/03/11 01:07:34;;;;;;;13.55;8.05;;;4.90;99.90;;;;;;5078415;22;20053;-83
2022/03/11 01:10:00;;;;;;;13.85;8.07;;;5.60;99.90;;;;;;5116638;22;20142;-82
2022/03/11 01:12:26;;;;;;;15.00;9.27;;;5.50;99.90;;;;;;5119402;22;20112;-83
2022/03/11 01:14:52;;;;;;;19.25;8.55;;;5.50;99.90;;;;;;5117004;22;20057;-82
2022/03/11 01:17:18;;;;;;;14.07;8.25;;;5.40;99.90;;;;;;5088430;22;20043;-82
2022/03/11 01:19:44;;;;;;;19.23;8.27;;;4.90;99.90;;;;;;5092674;22;20352;-83
2022/03/11 01:22:09;;;;;;;16.05;8.80;;;4.90;99.90;;;;;;5090950;22;20399;-83
2022/03/11 01:24:38;;;;;;;14.63;8.52;;;4.90;99.90;;;;;;5088754;22;20055;-82
2022/03/11 01:27:04;;;;;;;14.98;8.27;;;5.80;99.90;;;;;;5092522;22;20062;-83
2022/03/11 01:29:36;;;;;;;15.18;8.23;;;4.80;99.90;;;;;;5081143;22;20075;-83
2022/03/11 01:32:02;;;;;;;16.35;9.20;;;5.60;99.90;;;;;;5088946;22;20052;-82
2022/03/11 01:34:34;;;;;;;15.68;8.70;;;4.90;99.90;;;;;;5083587;22;20117;31
2022/03/11 01:37:00;;;;;;;16.90;7.63;;;5.50;99.90;;;;;;5097548;22;20105;-82
2022/03/11 01:39:25;;;;;;;14.90;8.18;;;5.80;99.90;;;;;;5101777;22;20051;-83
2022/03/11 01:41:52;;;;;;;14.20;8.30;;;5.60;99.90;;;;;;5122249;22;20135;-83
2022/03/11 01:44:17;;;;;;;14.50;8.20;;;5.20;99.90;;;;;;5094124;22;20052;-82
2022/03/11 01:46:43;;;;;;;14.40;7.88;;;4.80;99.90;;;;;;5094356;22;20148;-83
2022/03/11 01:49:11;;;;;;;16.10;8.18;;;4.60;99.90;;;;;;5087569;22;20044;-82
2022/03/11 01:51:39;;;;;;;14.20;8.10;;;4.80;99.90;;;;;;5092643;22;20056;-83
2022/03/11 01:54:05;;;;;;;19.35;8.68;;;4.90;99.90;;;;;;5095918;22;20067;-82
2022/03/11 01:56:38;;;;;;;15.88;8.10;;;4.50;99.90;;;;;;5082241;22;20083;-82
2022/03/11 01:59:05;;;;;;;15.38;8.35;;;4.80;99.90;;;;;;5108911;22;20063;-82
2022/03/11 02:01:37;;;;;;;16.08;8.73;;;5.70;99.90;;;;;;5165641;22;20166;-82
2022/03/11 02:04:04;;;;;;;15.65;8.52;;;5.30;99.90;;;;;;5119401;22;20058;-82
2022/03/11 02:06:31;;;;;;;16.40;8.20;;;4.70;99.90;;;;;;5130775;22;20051;-82
2022/03/11 02:08:59;;;;;;;14.75;8.40;;;5.00;99.90;;;;;;5079926;22;1130184;-82
2022/03/11 02:11:25;;;;;;;16.10;8.98;;;4.60;99.90;;;;;;5114204;22;20043;-82
2022/03/11 02:13:56;;;;;;;14.05;8.70;;;5.30;99.90;;;;;;5121943;22;20154;-83
2022/03/11 02:16:25;;;;;;;16.20;8.90;;;4.60;99.90;;;;;;5092558;22;20048;-82
2022/03/11 02:18:51;;;;;;;15.55;8.65;;;5.20;99.90;;;;;;5104491;22;20051;-83
2022/03/11 02:21:18;;;;;;;15.73;8.95;;;4.60;99.90;;;;;;5092447;22;20139;-82
2022/03/11 02:23:50;;;;;;;15.15;8.75;;;5.00;99.90;;;;;;5099266;22;20139;-83
2022/03/11 02:26:17;;;;;;;15.45;9.07;;;4.80;99.90;;;;;;5086379;22;20052;-82
2022/03/11 02:28:44;;;;;;;15.15;8.50;;;4.40;99.90;;;;;;5091944;22;20056;-83
2022/03/11 02:31:10;;;;;;;17.58;9.18;;;4.90;99.90;;;;;;5094956;22;20048;-82
2022/03/11 02:33:42;;;;;;;16.75;8.82;;;4.40;99.90;;;;;;5075945;22;20063;31
2022/03/11 02:36:09;;;;;;;14.25;8.20;;;5.10;99.90;;;;;;5096439;22;20444;-82
2022/03/11 02:38:36;;;;;;;15.93;8.93;;;4.80;99.90;;;;;;5124181;22;20051;-83
2022/03/11 02:41:02;;;;;;;15.90;9.00;;;4.70;99.90;;;;;;5095596;22;20062;-82
2022/03/11 02:43:32;;;;;;;16.92;9.13;;;5.10;99.90;;;;;;5095823;22;20056;31
2022/03/11 02:45:59;;;;;;;16.98;9.07;;;5.10;99.90;;;;;;5105059;22;20048;-82
2022/03/11 02:48:25;;;;;;;15.32;8.75;;;4.20;99.90;;;;;;5082785;22;20054;-83
2022/03/11 02:50:51;;;;;;;17.20;9.27;;;4.60;99.90;;;;;;5085483;22;20053;-82
2022/03/11 02:53:17;;;;;;;15.48;8.55;;;5.20;99.90;;;;;;5100239;22;20055;-82
2022/03/11 02:55:42;;;;;;;17.60;9.68;;;4.20;99.90;;;;;;5091125;22;20072;-82
2022/03/11 02:58:09;;;;;;;15.13;8.38;;;4.30;99.90;;;;;;5095472;22;20052;-82
2022/03/11 03:00:34;;;;;;;14.00;8.15;;;4.80;99.90;;;;;;5092291;22;20051;-83
2022/03/11 03:03:00;;;;;;;16.30;8.40;;;5.10;99.90;;;;;;5095914;22;20048;-82
2022/03/11 03:05:30;;;;;;;14.70;8.43;;;4.20;99.90;;;;;;5116867;22;20047;-83
2022/03/11 03:07:56;;;;;;;15.52;8.65;;;4.30;99.90;;;;;;5099049;22;20044;-82
2022/03/11 03:10:22;;;;;;;17.50;8.60;;;4.50;99.90;;;;;;5081383;22;20510;-82
2022/03/11 03:12:48;;;;;;;16.00;8.38;;;4.20;99.90;;;;;;5071005;22;20090;-83
2022/03/11 03:15:14;;;;;;;18.05;7.97;;;4.20;99.90;;;;;;5078207;22;20048;-82
2022/03/11 03:17:40;;;;;;;13.50;7.55;;;4.20;99.90;;;;;;5116388;22;20078;-83
2022/03/11 03:20:08;;;;;;;15.57;8.15;;;4.60;99.90;;;;;;5095024;22;20055;-82
2022/03/11 03:22:35;;;;;;;14.57;8.20;;;4.20;99.90;;;;;;5091559;22;20083;-83
2022/03/11 03:25:02;;;;;;;15.27;8.43;;;4.20;99.90;;;;;;5094913;22;20077;-82
2022/03/11 03:27:34;;;;;;;16.60;8.88;;;4.60;99.90;;;;;;5081230;22;20059;-83
2022/03/11 03:30:00;;;;;;;14.20;8.90;;;4.10;99.90;;;;;;5110785;22;20065;-82
2022/03/11 03:32:25;;;;;;;15.73;8.18;;;4.10;99.90;;;;;;5089087;22;20088;-82
2022/03/11 03:34:51;;;;;;;16.40;8.60;;;4.70;99.90;;;;;;5084666;22;20052;-83
2022/03/11 03:37:17;;;;;;;17.23;9.13;;;4.10;99.90;;;;;;5090034;22;20125;-82
2022/03/11 03:39:43;;;;;;;17.00;8.98;;;4.90;99.90;;;;;;5088867;22;20143;-83
2022/03/11 03:42:09;;;;;;;15.60;8.52;;;4.20;99.90;;;;;;5094498;22;20482;-82
2022/03/11 03:44:34;;;;;;;14.65;8.48;;;4.00;99.90;;;;;;5091076;22;20056;-83
2022/03/11 03:47:01;;;;;;;15.10;8.70;;;4.00;99.90;;;;;;5095169;22;20055;-82
2022/03/11 03:49:34;;;;;;;16.38;8.95;;;4.00;99.90;;;;;;5077583;22;20047;-82
2022/03/11 03:52:00;;;;;;;16.02;8.63;;;4.80;99.90;;;;;;5086345;22;20050;-82
2022/03/11 03:54:26;;;;;;;16.80;8.70;;;4.90;99.90;;;;;;5104649;22;20048;-82
2022/03/11 03:56:51;;;;;;;16.05;9.07;;;4.60;99.90;;;;;;5079429;22;20091;-82
2022/03/11 03:59:17;;;;;;;18.92;9.30;;;3.80;99.90;;;;;;5080963;22;20056;-82
2022/03/11 04:01:43;;;;;;;17.15;9.57;;;3.90;99.90;;;;;;5091639;22;20422;-83
2022/03/11 04:04:13;;;;;;;16.77;9.20;;;3.90;99.90;;;;;;5110106;22;20539;-82
2022/03/11 04:06:42;;;;;;;16.33;9.02;;;3.80;99.90;;;;;;5093085;22;20077;-83
2022/03/11 04:09:09;;;;;;;18.90;9.65;;;4.40;99.90;;;;;;5106215;22;20056;-82
2022/03/11 04:11:35;;;;;;;17.60;9.90;;;3.80;99.90;;;;;;5087323;22;20133;-83
2022/03/11 04:14:02;;;;;;;15.57;8.77;;;3.60;99.90;;;;;;5084183;22;20060;-82
2022/03/11 04:16:33;;;;;;;19.52;10.00;;;4.50;99.90;;;;;;5069865;22;20568;-83
2022/03/11 04:18:59;;;;;;;18.60;9.43;;;3.80;99.90;;;;;;5063030;22;20042;-82
2022/03/11 04:21:25;;;;;;;19.75;9.35;;;3.80;99.90;;;;;;5088806;22;20121;-83
2022/03/11 04:23:52;;;;;;;18.58;9.45;;;4.70;99.90;;;;;;5083136;22;20056;-82
2022/03/11 04:26:18;;;;;;;18.27;9.88;;;4.10;99.90;;;;;;5104110;28;20095;-82
2022/03/11 04:28:43;;;;;;;18.27;10.07;;;4.20;99.90;;;;;;5096413;22;20490;-83
2022/03/11 04:31:11;;;;;;;18.02;9.20;;;3.70;99.90;;;;;;5091771;22;20051;-82
2022/03/11 04:33:39;;;;;;;16.60;9.65;;;3.80;99.90;;;;;;5089868;22;20052;-83
2022/03/11 04:36:06;;;;;;;17.55;9.13;;;3.70;99.90;;;;;;5092944;22;20052;-82
2022/03/11 04:38:32;;;;;;;17.40;9.50;;;3.70;99.90;;;;;;5079150;22;20045;-83
2022/03/11 04:40:58;;;;;;;18.70;9.68;;;3.70;99.90;;;;;;5094745;22;20838;-82
2022/03/11 04:43:24;;;;;;;18.77;10.13;;;3.90;99.90;;;;;;5079384;22;20194;-82
2022/03/11 04:45:50;;;;;;;18.35;10.18;;;3.60;99.90;;;;;;5082164;22;20064;-83
2022/03/11 04:48:15;;;;;;;18.90;9.95;;;3.60;99.90;;;;;;5092022;22;20078;-82
2022/03/11 04:50:41;;;;;;;18.70;10.50;;;3.60;99.90;;;;;;5090234;22;20380;-83
2022/03/11 04:53:07;;;;;;;18.42;10.07;;;4.10;99.90;;;;;;5092432;22;20064;-82
2022/03/11 04:55:39;;;;;;;19.33;10.00;;;3.40;99.90;;;;;;5079414;22;20082;-82
2022/03/11 04:58:05;;;;;;;18.77;9.95;;;3.70;99.90;;;;;;5099052;22;20052;-82
2022/03/11 05:00:30;;;;;;;19.10;10.50;;;3.50;99.90;;;;;;5084632;22;20144;-82
2022/03/11 05:02:58;;;;;;;21.80;11.25;;;3.60;99.90;;;;;;5076211;22;20102;-82
2022/03/11 05:05:25;;;;;;;19.70;10.30;;;3.50;99.90;;;;;;5079811;22;20049;-82
2022/03/11 05:07:51;;;;;;;18.92;10.10;;;3.40;99.90;;;;;;5088214;22;20048;-82
2022/03/11 05:10:17;;;;;;;19.30;10.77;;;4.10;99.90;;;;;;5091454;22;20061;-82
2022/03/11 05:12:43;;;;;;;19.27;10.77;;;4.30;99.90;;;;;;5081145;22;20055;-83
2022/03/11 05:15:10;;;;;;;18.48;10.32;;;4.30;99.90;;;;;;5083993;22;20054;-82
2022/03/11 05:17:39;;;;;;;19.98;10.60;;;3.40;99.90;;;;;;5092918;22;20060;-83
2022/03/11 05:20:05;;;;;;;19.88;11.32;;;3.40;99.90;;;;;;5103081;22;20451;-82
2022/03/11 05:23:04;;;;;;;22.77;10.98;;;3.40;99.90;;;;;;5117830;22;20047;-82
2022/03/11 05:25:30;;;;;;;20.67;10.65;;;3.40;99.90;;;;;;5092538;28;20047;-82
2022/03/11 05:27:56;;;;;;;19.67;11.10;;;3.30;99.90;;;;;;5110250;28;20043;-81
2022/03/11 05:30:22;;;;;;;21.75;11.18;;;3.80;99.90;;;;;;5107000;22;20069;-81
2022/03/11 05:32:48;;;;;;;20.73;10.60;;;3.30;99.90;;;;;;5121098;22;20043;-81
2022/03/11 05:35:15;;;;;;;20.90;10.80;;;3.30;99.90;;;;;;5114005;27;20076;-82
2022/03/11 05:37:41;;;;;;;20.27;10.65;;;3.30;99.90;;;;;;5113484;27;20023;-81
2022/03/11 05:40:08;;;;;;;21.70;10.82;;;4.00;99.90;;;;;;5112949;27;20417;-81
2022/03/11 05:42:34;;;;;;;21.58;11.20;;;3.20;99.90;;;;;;5112747;27;20043;-81
2022/03/11 05:45:02;;;;;;;23.08;11.57;;;3.20;99.90;;;;;;5114367;27;20042;-81
2022/03/11 05:47:28;;;;;;;22.08;11.98;;;3.20;99.90;;;;;;5128097;27;20043;-81
2022/03/11 05:49:54;;;;;;;20.65;10.82;;;3.60;99.90;;;;;;5109030;27;20043;-82
2022/03/11 05:52:21;;;;;;;20.52;11.50;;;3.10;99.90;;;;;;5125883;27;20054;-81
2022/03/11 05:54:47;;;;;;;22.75;12.23;;;3.20;99.90;;;;;;5109520;27;20065;-81
2022/03/11 05:57:13;;;;;;;23.08;11.75;;;3.50;99.90;;;;;;5093478;22;20048;-82
2022/03/11 05:59:39;;;;;;;22.25;11.13;;;3.50;99.90;;;;;;5081315;22;20097;-82
2022/03/11 06:02:04;;;;;;;23.20;11.75;;;3.10;99.90;;;;;;5082752;22;20074;-82
2022/03/11 06:04:37;;;;;;;21.10;11.25;;;3.20;99.90;;;;;;5121069;22;20051;-82
2022/03/11 06:07:03;;;;;;;23.60;11.55;;;3.00;99.90;;;;;;5092454;22;20138;-82
2022/03/11 06:09:36;;;;;;;22.30;11.52;;;3.10;99.90;;;;;;5085750;22;20044;-83
2022/03/11 06:12:03;;;;;;;23.80;11.80;;;3.10;99.90;;;;;;5112936;22;20047;-82
2022/03/11 06:14:35;;;;;;;20.55;11.40;;;3.10;99.90;;;;;;5089371;22;20452;-82
2022/03/11 06:17:00;;;;;;;20.75;11.15;;;3.70;99.90;;;;;;5120202;22;20051;-82
2022/03/11 06:19:26;;;;;;;24.10;12.00;;;3.30;99.90;;;;;;5090478;22;20051;-82
2022/03/11 06:21:52;;;;;;;24.55;12.20;;;2.90;99.90;;;;;;5071221;22;20054;-82
2022/03/11 06:24:18;;;;;;;24.83;11.48;;;3.00;99.90;;;;;;5078498;22;20075;-82
2022/03/11 06:26:45;;;;;;;23.77;11.98;;;3.10;99.90;;;;;;5131597;22;20411;-83
2022/03/11 06:29:10;;;;;;;21.30;11.68;;;3.10;99.90;;;;;;5092960;22;20055;-82
2022/03/11 06:31:37;;;;;;;21.35;11.40;;;3.00;99.90;;;;;;5078343;22;20048;-82
2022/03/11 06:34:03;;;;;;;24.20;12.10;;;3.10;99.90;;;;;;5073145;22;20052;-82
2022/03/11 06:36:37;;;;;;;23.77;12.48;;;3.10;99.90;;;;;;5080674;22;20086;-83
2022/03/11 06:39:03;;;;;;;21.60;12.02;;;3.10;99.90;;;;;;5111516;22;20138;-82
2022/03/11 06:41:35;;;;;;;24.02;12.32;;;2.90;99.90;;;;;;5088626;22;20080;-82
2022/03/11 06:44:00;;;;;;;24.42;12.05;;;3.30;99.90;;;;;;5086568;28;20059;-83
2022/03/11 06:46:26;;;;;;;27.13;12.60;;;3.20;99.90;;;;;;5093506;28;20040;-83
2022/03/11 06:48:52;;;;;;;23.55;11.43;;;3.60;99.90;;;;;;5104254;22;20121;-83
2022/03/11 06:51:17;;;;;;;21.92;12.02;;;3.20;99.90;;;;;;5099737;22;20079;-83
2022/03/11 06:53:44;;;;;;;24.63;12.73;;;3.70;99.90;;;;;;5074634;22;20052;-82
2022/03/11 06:56:10;;;;;;;21.88;11.75;;;3.50;99.90;;;;;;5072708;22;20574;-83
2022/03/11 06:58:35;;;;;;;23.85;12.25;;;4.10;99.90;;;;;;5075152;22;20075;-83
2022/03/11 07:01:01;;;;;;;23.90;12.02;;;3.40;99.90;;;;;;5072271;22;20056;-82
2022/03/11 07:05:52;;;;;;;24.83;12.23;;;3.50;99.90;;;;;;5151293;22;20050;-83
2022/03/11 07:08:18;;;;;;;22.92;11.95;;;3.60;99.90;;;;;;5108340;27;20043;-82
2022/03/11 07:10:43;;;;;;;25.48;12.85;;;3.70;99.90;;;;;;5092983;22;20075;-83
2022/03/11 07:13:09;;;;;;;24.27;12.77;;;3.60;99.90;;;;;;5064213;28;20037;-83
2022/03/11 07:15:35;;;;;;;27.02;12.95;;;3.70;99.90;;;;;;5064922;28;20040;-83
2022/03/11 07:18:00;;;;;;;23.52;11.90;;;4.20;99.90;;;;;;5064053;28;20044;-83
2022/03/11 07:20:26;;;;;;;24.58;11.98;;;3.80;99.90;;;;;;5074996;22;20133;-83
2022/03/11 07:22:52;;;;;;;25.05;11.77;;;3.80;99.90;;;;;;5120727;22;20027;-83
2022/03/11 07:25:17;;;;;;;24.75;12.52;;;4.70;99.90;;;;;;5107196;27;20043;-82
2022/03/11 07:27:45;;;;;;;25.48;13.05;;;3.90;99.90;;;;;;5085625;22;20052;-83
2022/03/11 07:30:12;;;;;;;22.42;11.18;;;4.20;99.90;;;;;;5071612;22;20063;-83
2022/03/11 07:32:39;;;;;;;22.00;12.30;;;4.10;99.90;;;;;;5084556;22;20056;-83
2022/03/11 07:35:05;;;;;;;23.35;12.15;;;4.10;99.90;;;;;;5095220;22;20048;-83
2022/03/11 07:37:31;;;;;;;23.90;11.98;;;4.20;99.90;;;;;;5071270;22;20056;-83
2022/03/11 07:39:56;;;;;;;23.42;12.18;;;4.20;99.90;;;;;;5064469;28;20041;-83
2022/03/11 07:42:22;;;;;;;24.73;12.13;;;4.50;99.90;;;;;;5073841;22;20054;-83
2022/03/11 07:44:48;;;;;;;23.08;11.30;;;4.40;99.90;;;;;;5077400;22;20055;-83
2022/03/11 07:47:14;;;;;;;23.40;11.73;;;4.40;99.90;;;;;;5107744;27;20043;-82
2022/03/11 07:49:40;;;;;;;27.90;12.27;;;4.40;99.90;;;;;;5074875;22;20052;-83
2022/03/11 07:52:06;;;;;;;25.05;12.50;;;4.50;99.90;;;;;;5078200;22;20483;-83
2022/03/11 07:54:32;;;;;;;25.02;12.25;;;4.50;99.90;;;;;;5074165;22;20040;-83
2022/03/11 07:56:57;;;;;;;25.27;12.57;;;5.30;99.90;;;;;;5071509;22;20117;-83
2022/03/11 07:59:23;;;;;;;27.40;13.15;;;4.90;99.90;;;;;;5074746;22;20398;-83
2022/03/11 08:01:49;;;;;;;26.02;12.73;;;5.30;99.90;;;;;;5083774;22;20055;-83
2022/03/11 08:04:16;;;;;;;24.05;12.45;;;5.40;99.90;;;;;;5124468;27;20076;-83
2022/03/11 08:06:43;;;;;;;23.08;12.30;;;4.80;99.90;;;;;;5076418;22;20465;-83
2022/03/11 08:09:09;;;;;;;27.85;13.07;;;5.90;99.90;;;;;;5075261;22;20422;-83
2022/03/11 08:11:34;;;;;;;27.50;12.60;;;5.10;99.90;;;;;;5056710;22;20052;-83
2022/03/11 08:14:00;;;;;;;23.48;12.00;;;5.00;99.90;;;;;;5060780;28;20464;-83
2022/03/11 08:16:26;;;;;;;24.15;12.80;;;5.10;99.90;;;;;;5087270;22;20139;-83
2022/03/11 08:18:51;;;;;;;25.83;13.10;;;5.20;99.90;;;;;;5073132;22;20087;-83
2022/03/11 08:21:17;;;;;;;28.13;12.57;;;6.00;99.90;;;;;;5066602;28;20105;-83
2022/03/11 08:23:44;;;;;;;28.00;12.02;;;5.30;99.90;;;;;;5067593;28;20044;-83
2022/03/11 08:26:10;;;;;;;22.15;11.80;;;5.40;99.90;;;;;;5081534;22;20040;-83
2022/03/11 08:28:37;;;;;;;24.83;12.25;;;5.50;99.90;;;;;;5107340;28;20067;-83
2022/03/11 08:31:02;;;;;;;27.80;12.48;;;6.30;99.90;;;;;;5111472;22;20107;-83
2022/03/11 08:33:30;;;;;;;24.40;12.55;;;6.40;99.90;;;;;;5137426;22;20494;-83
2022/03/11 08:35:57;;;;;;;22.85;11.82;;;5.80;99.90;;;;;;5107328;28;20047;-83
2022/03/11 08:38:23;;;;;;;24.80;12.50;;;5.80;99.90;;;;;;5108341;27;20039;-82
2022/03/11 08:40:48;;;;;;;24.15;11.88;;;6.20;99.90;;;;;;5093013;22;20076;-83
2022/03/11 08:43:14;;;;;;;19.42;11.90;;;6.10;99.90;;;;;;5078165;22;20052;-83
2022/03/11 08:45:40;;;;;;;24.67;12.05;;;6.20;99.90;;;;;;5084559;22;20101;-83
2022/03/11 08:48:07;;;;;;;27.23;12.82;;;6.20;99.90;;;;;;5068745;28;20048;-83
2022/03/11 08:50:33;;;;;;;24.55;11.93;;;6.40;99.90;;;;;;5028962;22;1260345;-82
2022/03/11 08:52:59;;;;;;;22.05;11.88;;;6.50;99.90;;;;;;5078245;22;20055;-83
2022/03/11 08:55:25;;;;;;;27.05;12.25;;;6.60;99.90;;;;;;5085606;22;20059;-83
2022/03/11 08:57:52;;;;;;;20.88;11.90;;;6.70;99.90;;;;;;5088016;22;20067;-83
2022/03/11 09:00:20;;;;;;;20.15;11.18;;;6.70;99.90;;;;;;5093140;22;20506;-79
2022/03/11 09:02:47;;;;;;;24.17;11.93;;;6.70;99.90;;;;;;5084653;22;20063;-80
2022/03/11 09:05:15;;;;;;;22.15;11.55;;;6.80;99.90;;;;;;5095132;22;20055;-80
2022/03/11 09:07:41;;;;;;;22.75;11.90;;;7.20;99.90;;;;;;5092452;22;20070;-80
2022/03/11 09:10:12;;;;;;;22.35;11.85;;;7.00;99.90;;;;;;5084252;22;20449;-80
2022/03/11 09:12:39;;;;;;;25.45;12.02;;;7.10;99.90;;;;;;5088631;22;20048;-80
2022/03/11 09:15:06;;;;;;;23.25;12.82;;;8.00;99.90;;;;;;5129236;22;20548;-82
2022/03/11 09:17:33;;;;;;;22.55;12.07;;;7.20;99.90;;;;;;5065256;28;20063;-82
2022/03/11 09:20:03;;;;;;;22.92;12.20;;;7.60;99.90;;;;;;5081536;28;20049;-82
2022/03/11 09:22:39;;;;;;;23.00;12.00;;;7.30;99.90;;;;;;5065203;28;20044;-82
2022/03/11 09:25:07;;;;;;;22.55;12.55;;;7.60;99.90;;;;;;5081896;28;20117;-82
2022/03/11 09:27:33;;;;;;;22.08;11.60;;;7.40;99.90;;;;;;5081770;28;20368;-82
2022/03/11 09:29:59;;;;;;;22.80;11.63;;;7.80;99.90;;;;;;5064549;28;20051;-83
2022/03/11 09:32:25;;;;;;;21.98;11.80;;;7.60;99.90;;;;;;5081887;28;20036;-83
2022/03/11 09:34:52;;;;;;;22.67;12.13;;;7.60;99.90;;;;;;5081470;28;20063;-82
2022/03/11 09:37:17;;;;;;;24.08;11.88;;;7.90;99.90;;;;;;5063930;28;20048;-82
2022/03/11 09:39:43;;;;;;;22.92;12.13;;;7.70;99.90;;;;;;5081720;28;20497;-82
2022/03/11 09:42:10;;;;;;;21.33;12.85;;;7.90;99.90;;;;;;5065357;28;20041;-82
2022/03/11 09:44:46;;;;;;;26.10;11.98;;;7.90;99.90;;;;;;5082017;28;20052;-82
2022/03/11 09:47:14;;;;;;;22.20;12.23;;;8.00;99.90;;;;;;5079862;28;20048;-83
2022/03/11 09:49:40;;;;;;;24.98;12.82;;;8.20;99.90;;;;;;5080759;28;20044;-82
2022/03/11 09:52:06;;;;;;;22.50;12.55;;;8.50;99.90;;;;;;5081966;28;20124;-82
2022/03/11 09:54:33;;;;;;;23.30;12.35;;;8.30;99.90;;;;;;5080759;28;20044;-82
2022/03/11 09:56:58;;;;;;;22.52;12.85;;;8.40;99.90;;;;;;5064953;28;20048;-82
2022/03/11 09:59:27;;;;;;;21.08;11.95;;;8.40;99.90;;;;;;5065315;28;20048;-82
2022/03/11 10:01:57;;;;;;;23.27;12.07;;;8.50;99.90;;;;;;5064702;28;20108;-82
2022/03/11 10:04:24;;;;;;;23.00;12.27;;;9.00;99.90;;;;;;5064692;28;20044;-82
2022/03/11 10:06:51;;;;;;;19.65;11.50;;;8.60;99.90;;;;;;5081534;28;20560;-82
2022/03/11 10:09:20;;;;;;;23.13;11.98;;;8.60;99.90;;;;;;5080947;28;20049;-82
2022/03/11 10:11:52;;;;;;;26.52;12.40;;;8.80;99.90;;;;;;5080879;28;20048;-82
2022/03/11 10:14:34;;;;;;;23.40;11.43;;;9.30;99.90;;;;;;5084230;28;20422;-82
2022/03/11 10:17:01;;;;;;;26.77;12.20;;;8.90;99.90;;;;;;5083949;28;20106;-82
2022/03/11 10:19:27;;;;;;;26.92;12.85;;;8.90;99.90;;;;;;5100415;28;20043;-82
2022/03/11 10:21:57;;;;;;;23.98;12.43;;;9.60;99.90;;;;;;5066963;28;20040;-82
2022/03/11 10:24:22;;;;;;;21.50;12.15;;;9.20;99.90;;;;;;5067099;28;20048;-82
2022/03/11 10:26:58;;;;;;;23.88;12.45;;;9.70;99.90;;;;;;5083741;28;20517;-83
2022/03/11 10:29:25;;;;;;;;;;;9.30;99.90;;;;;;5084195;28;20055;-81
2022/03/11 10:31:54;;;;;;;23.15;11.85;;;9.40;99.90;;;;;;5084157;28;19949;-82
2022/03/11 10:34:27;;;;;;;23.98;12.88;;;9.50;99.90;;;;;;5066688;28;20052;-82
2022/03/11 10:37:07;;;;;;;22.20;12.57;;;9.60;99.90;;;;;;5084282;28;20363;-82
2022/03/11 10:39:44;;;;;;;24.50;12.85;;;9.70;99.90;;;;;;5083616;28;20043;-82
2022/03/11 10:42:15;;;;;;;22.88;11.77;;;9.70;99.90;;;;;;5083475;28;20524;-82
2022/03/11 10:44:57;;;;;;;21.52;12.60;;;9.80;99.90;;;;;;5083599;28;20097;-82
2022/03/11 10:47:35;;;;;;;21.08;12.23;;;10.00;99.90;;;;;;5083326;28;20079;-82
2022/03/11 10:50:12;;;;;;;21.63;11.63;;;10.20;99.90;;;;;;5083062;28;20431;-82
2022/03/11 10:52:48;;;;;;;20.45;11.05;;;10.30;99.90;;;;;;5083130;28;20040;-82
2022/03/11 10:55:30;;;;;;;17.63;11.75;;;10.70;99.90;;;;;;5082804;28;20048;-83
2022/03/11 10:57:58;;;;;;;18.55;11.10;;;10.60;99.80;;;;;;5082841;28;20474;-82
2022/03/11 11:00:32;;;;;;;22.17;11.25;;;10.60;98.50;;;;;;5082510;28;20047;-83
2022/03/11 11:03:08;;;;;;;21.88;10.65;;;10.70;98.30;;;;;;5082937;28;20051;-82
2022/03/11 11:05:35;;;;;;;20.60;11.95;;;10.80;96.10;;;;;;5083182;28;20040;-82
2022/03/11 11:08:04;;;;;;;21.33;12.02;;;10.90;97.80;;;;;;5082871;28;20047;-82
2022/03/11 11:10:33;;;;;;;18.27;11.15;;;11.00;96.80;;;;;;5099879;28;20048;-82
2022/03/11 11:12:59;;;;;;;19.77;11.13;;;11.10;96.90;;;;;;5082711;28;20055;-82
2022/03/11 11:15:25;;;;;;;18.83;10.88;;;11.10;96.60;;;;;;5082855;28;20051;-83
2022/03/11 11:17:52;;;;;;;23.35;11.63;;;11.20;95.80;;;;;;5083433;28;20048;-83
2022/03/11 11:20:33;;;;;;;21.27;11.27;;;11.70;95.70;;;;;;5083176;28;20044;-82
2022/03/11 11:23:03;;;;;;;22.98;11.45;;;11.40;94.50;;;;;;5082858;28;20036;-82
2022/03/11 11:25:29;;;;;;;21.60;11.27;;;11.40;93.00;;;;;;5082793;28;20050;-83
2022/03/11 11:27:59;;;;;;;19.45;11.82;;;11.50;94.60;;;;;;5083040;28;20043;-82
2022/03/11 11:30:25;;;;;;;21.13;11.75;;;11.60;93.90;;;;;;5100120;28;20402;-83
2022/03/11 11:32:52;;;;;;;23.55;13.25;;;11.90;95.20;;;;;;5082442;28;20036;-82
2022/03/11 11:35:26;;;;;;;24.48;11.88;;;12.00;92.80;;;;;;5048700;28;20048;-82
2022/03/11 11:37:52;;;;;;;20.88;11.55;;;11.90;91.20;;;;;;5064206;28;20119;-82
2022/03/11 11:40:19;;;;;;;21.45;11.93;;;11.90;92.20;;;;;;5064201;28;20068;-82
2022/03/11 11:43:26;;;;;;;22.30;12.00;;;12.00;93.00;;;;;;5065011;28;20050;-83
2022/03/11 11:46:12;;;;;;;19.80;11.45;;;12.00;91.30;;;;;;5081846;28;20044;-82
2022/03/11 11:48:42;;;;;;;20.00;11.98;;;12.10;90.00;;;;;;5081874;28;20114;-83
2022/03/11 11:51:34;;;;;;;31.83;11.70;;;12.10;91.50;;;;;;5081963;28;20048;-83
2022/03/11 11:54:08;;;;;;;24.23;12.07;;;12.20;90.70;;;;;;5058662;28;20128;-83
2022/03/11 11:56:52;;;;;;;23.02;12.38;;;12.40;91.60;;;;;;5065547;28;20089;-82
2022/03/11 11:59:32;;;;;;;21.35;12.38;;;12.50;90.10;;;;;;5081804;28;20048;-82
2022/03/11 12:01:59;;;;;;;21.92;11.50;;;12.50;89.50;;;;;;5081448;28;20051;-82
2022/03/11 12:04:38;;;;;;;22.27;12.13;;;12.50;90.10;;;;;;5080905;28;20055;-83
2022/03/11 12:07:17;;;;;;;24.27;11.90;;;12.50;88.20;;;;;;5081537;28;20050;-83
2022/03/11 12:09:51;;;;;;;23.40;12.98;;;12.50;88.60;;;;;;5098853;28;20099;-82
2022/03/11 12:14:57;;;;;;;22.50;13.65;;;12.80;87.50;;;;;;5080987;28;20048;-82
2022/03/11 12:18:00;;;;;;;21.05;12.93;;;12.70;88.00;;;;;;5063966;28;20475;-82
2022/03/11 12:20:31;;;;;;;26.35;13.43;;;12.90;87.30;;;;;;5064510;28;21133;-83
2022/03/11 12:23:09;;;;;;;19.75;12.07;;;13.10;88.40;;;;;;5081268;28;20093;-82
2022/03/11 12:25:36;;;;;;;30.58;13.02;;;13.20;86.30;;;;;;5081168;28;20050;-82
2022/03/11 12:28:13;;;;;;;20.50;12.57;;;13.00;85.80;;;;;;5065348;28;20520;-83
2022/03/11 12:30:48;;;;;;;21.92;12.57;;;13.20;83.70;;;;;;5083079;28;20068;-82
2022/03/11 12:33:19;;;;;;;24.42;12.65;;;13.30;83.70;;;;;;5081186;28;20372;-83
2022/03/11 12:35:47;;;;;;;28.98;13.10;;;13.30;84.40;;;;;;5064256;28;20044;-82
2022/03/11 12:38:18;;;;;;;22.73;12.90;;;13.30;83.60;;;;;;5081228;28;20046;-83
2022/03/11 12:40:45;;;;;;;30.33;13.50;;;13.60;84.60;;;;;;5080905;28;20047;-83
2022/03/11 12:43:12;;;;;;;22.17;12.15;;;13.70;83.00;;;;;;5080995;28;20051;-82
2022/03/11 12:45:57;;;;;;;21.95;13.07;;;13.80;82.30;;;;;;5081623;28;20097;-83
2022/03/11 12:48:25;;;;;;;21.47;12.33;;;14.10;81.80;;;;;;5064281;28;20063;-83